Mc Pherson, Kansas
Current Conditions -  °F | °C
As of 5:52 PM on Tuesday 25 Nov 2014 (Local Time) from KHUT Reporting Station
Overcast Overcast  
Wind Chill:   Ceiling: 10000
Heat Index:   Visibility: 10mi
Dew Point: -3°   Wind: 9mph
Humidity: 49%   Direction: 160°SSE
Pressure: 29.99"   Gusts: NA
Location:  38.4089°N, 97.6556°W
Report Text: KHUT 252352Z 16008KT 10SM OVC100 07/M03 A2999 RMK AO2 SLP160 T00721028 10111 20072 56019
Loading
Personal Weather Stations






























Interactive Weather Map New forecast layout! Learn more

10-Day Weather Forecast

Advertisements
Track Severe Weather on mobile